sensor_id;sensor_type;location;lat;lon;timestamp;pressure;altitude;pressure_sealevel;temperature;humidity
9893;BME280;4985;49.092;8.542;2023-07-13T00:00:35;99323.63;;;26.54;42.61
9893;BME280;4985;49.092;8.542;2023-07-13T00:03:02;99321.47;;;26.51;42.61
9893;BME280;4985;49.092;8.542;2023-07-13T00:05:29;99327.69;;;26.51;42.54
9893;BME280;4985;49.092;8.542;2023-07-13T00:07:56;99329.56;;;26.51;42.50
9893;BME280;4985;49.092;8.542;2023-07-13T00:10:23;99334.12;;;26.50;42.42
9893;BME280;4985;49.092;8.542;2023-07-13T00:12:49;99331.69;;;26.49;42.38
9893;BME280;4985;49.092;8.542;2023-07-13T00:15:19;99324.69;;;26.48;42.41
9893;BME280;4985;49.092;8.542;2023-07-13T00:17:50;99323.06;;;26.47;42.38
9893;BME280;4985;49.092;8.542;2023-07-13T00:20:16;99311.44;;;26.46;42.36
9893;BME280;4985;49.092;8.542;2023-07-13T00:22:43;99312.53;;;26.45;42.43
9893;BME280;4985;49.092;8.542;2023-07-13T00:25:10;99310.62;;;26.46;42.42
9893;BME280;4985;49.092;8.542;2023-07-13T00:27:37;99317.94;;;26.45;42.43
9893;BME280;4985;49.092;8.542;2023-07-13T00:30:05;99313.59;;;26.44;42.42
9893;BME280;4985;49.092;8.542;2023-07-13T00:32:32;99309.28;;;26.43;42.39
9893;BME280;4985;49.092;8.542;2023-07-13T00:35:00;99314.69;;;26.43;42.39
9893;BME280;4985;49.092;8.542;2023-07-13T00:37:26;99316.56;;;26.43;42.36
9893;BME280;4985;49.092;8.542;2023-07-13T00:39:53;99314.16;;;26.41;42.36
9893;BME280;4985;49.092;8.542;2023-07-13T00:42:19;99307.94;;;26.40;42.34
9893;BME280;4985;49.092;8.542;2023-07-13T00:45:04;99315.22;;;26.40;42.34
9893;BME280;4985;49.092;8.542;2023-07-13T00:47:31;99303.88;;;26.38;42.27
9893;BME280;4985;49.092;8.542;2023-07-13T00:49:59;99309.84;;;26.40;42.18
9893;BME280;4985;49.092;8.542;2023-07-13T00:52:26;99308.22;;;26.39;42.10
9893;BME280;4985;49.092;8.542;2023-07-13T00:54:54;99311.97;;;26.38;42.04
9893;BME280;4985;49.092;8.542;2023-07-13T00:57:22;99309.25;;;26.38;42.04
9893;BME280;4985;49.092;8.542;2023-07-13T00:59:52;99311.38;;;26.36;42.00
9893;BME280;4985;49.092;8.542;2023-07-13T01:02:20;99304.38;;;26.35;41.98
9893;BME280;4985;49.092;8.542;2023-07-13T01:04:47;99298.16;;;26.34;42.00
9893;BME280;4985;49.092;8.542;2023-07-13T01:07:15;99301.13;;;26.33;42.03
9893;BME280;4985;49.092;8.542;2023-07-13T01:09:42;99296.81;;;26.32;42.04
9893;BME280;4985;49.092;8.542;2023-07-13T01:12:10;99303.84;;;26.33;42.00
9893;BME280;4985;49.092;8.542;2023-07-13T01:14:37;99308.69;;;26.31;41.99
9893;BME280;4985;49.092;8.542;2023-07-13T01:17:04;99298.97;;;26.30;41.98
9893;BME280;4985;49.092;8.542;2023-07-13T01:19:35;99306.25;;;26.29;41.94
9893;BME280;4985;49.092;8.542;2023-07-13T01:22:04;99300.87;;;26.29;41.90
9893;BME280;4985;49.092;8.542;2023-07-13T01:24:34;99301.13;;;26.28;41.84
9893;BME280;4985;49.092;8.542;2023-07-13T01:27:00;99296.78;;;26.27;41.84
9893;BME280;4985;49.092;8.542;2023-07-13T01:29:27;99295.97;;;26.26;41.81
9893;BME280;4985;49.092;8.542;2023-07-13T01:31:53;99300.56;;;26.26;41.77
9893;BME280;4985;49.092;8.542;2023-07-13T01:34:20;99304.34;;;26.25;41.79
9893;BME280;4985;49.092;8.542;2023-07-13T01:36:46;99297.88;;;26.26;41.79
9893;BME280;4985;49.092;8.542;2023-07-13T01:39:14;99304.34;;;26.25;41.72
9893;BME280;4985;49.092;8.542;2023-07-13T01:41:42;99306.50;;;26.23;41.63
9893;BME280;4985;49.092;8.542;2023-07-13T01:44:08;99307.56;;;26.22;41.58
9893;BME280;4985;49.092;8.542;2023-07-13T01:46:35;99315.66;;;26.22;41.58
9893;BME280;4985;49.092;8.542;2023-07-13T01:49:02;99314.84;;;26.21;41.58
9893;BME280;4985;49.092;8.542;2023-07-13T01:51:28;99310.53;;;26.20;41.52
9893;BME280;4985;49.092;8.542;2023-07-13T01:53:55;99310.00;;;26.18;41.51
9893;BME280;4985;49.092;8.542;2023-07-13T01:56:23;99306.50;;;26.18;41.52
9893;BME280;4985;49.092;8.542;2023-07-13T01:58:49;99306.50;;;26.18;41.48
9893;BME280;4985;49.092;8.542;2023-07-13T02:01:16;99310.50;;;26.15;41.51
9893;BME280;4985;49.092;8.542;2023-07-13T02:03:43;99309.69;;;26.15;41.53
9893;BME280;4985;49.092;8.542;2023-07-13T02:06:09;99317.25;;;26.12;40.68
9893;BME280;4985;49.092;8.542;2023-07-13T02:08:37;99309.66;;;26.04;40.33
9893;BME280;4985;49.092;8.542;2023-07-13T02:11:03;99316.13;;;25.98;40.26
9893;BME280;4985;49.092;8.542;2023-07-13T02:13:31;99310.44;;;25.95;39.85
9893;BME280;4985;49.092;8.542;2023-07-13T02:15:58;99316.06;;;25.88;39.32
9893;BME280;4985;49.092;8.542;2023-07-13T02:18:24;99307.94;;;25.78;39.50
9893;BME280;4985;49.092;8.542;2023-07-13T02:20:51;99311.41;;;25.73;39.68
9893;BME280;4985;49.092;8.542;2023-07-13T02:23:18;99312.16;;;25.69;39.84
9893;BME280;4985;49.092;8.542;2023-07-13T02:25:45;99311.06;;;25.65;39.97
9893;BME280;4985;49.092;8.542;2023-07-13T02:28:11;99312.66;;;25.61;40.04
9893;BME280;4985;49.092;8.542;2023-07-13T02:30:39;99306.66;;;25.48;40.23
9893;BME280;4985;49.092;8.542;2023-07-13T02:33:06;99321.19;;;25.47;40.31
9893;BME280;4985;49.092;8.542;2023-07-13T02:35:32;99305.81;;;25.43;40.30
9893;BME280;4985;49.092;8.542;2023-07-13T02:37:59;99312.00;;;25.38;40.42
9893;BME280;4985;49.092;8.542;2023-07-13T02:40:26;99317.59;;;25.37;40.58
9893;BME280;4985;49.092;8.542;2023-07-13T02:42:52;99318.66;;;25.31;40.82
9893;BME280;4985;49.092;8.542;2023-07-13T02:45:19;99321.06;;;25.27;41.03
9893;BME280;4985;49.092;8.542;2023-07-13T02:47:47;99310.50;;;25.20;41.17
9893;BME280;4985;49.092;8.542;2023-07-13T02:50:13;99317.97;;;25.13;41.30
9893;BME280;4985;49.092;8.542;2023-07-13T02:52:40;99315.94;;;24.98;41.60
9893;BME280;4985;49.092;8.542;2023-07-13T02:55:07;99319.25;;;24.79;42.04
9893;BME280;4985;49.092;8.542;2023-07-13T02:57:34;99313.44;;;24.60;42.42
9893;BME280;4985;49.092;8.542;2023-07-13T03:00:01;99321.94;;;24.47;42.67
9893;BME280;4985;49.092;8.542;2023-07-13T03:02:31;99326.59;;;24.34;42.97
9893;BME280;4985;49.092;8.542;2023-07-13T03:04:58;99325.59;;;24.19;43.27
9893;BME280;4985;49.092;8.542;2023-07-13T03:07:25;99320.91;;;24.09;43.51
9893;BME280;4985;49.092;8.542;2023-07-13T03:09:54;99324.59;;;24.03;43.58
9893;BME280;4985;49.092;8.542;2023-07-13T03:12:20;99332.28;;;23.94;43.72
9893;BME280;4985;49.092;8.542;2023-07-13T03:14:47;99327.84;;;23.83;43.89
9893;BME280;4985;49.092;8.542;2023-07-13T03:17:13;99341.44;;;23.76;44.07
9893;BME280;4985;49.092;8.542;2023-07-13T03:19:40;99336.88;;;23.77;44.03
9893;BME280;4985;49.092;8.542;2023-07-13T03:22:08;99340.88;;;23.74;44.12
9893;BME280;4985;49.092;8.542;2023-07-13T03:24:35;99337.69;;;23.77;44.01
9893;BME280;4985;49.092;8.542;2023-07-13T03:27:04;99336.97;;;23.82;43.89
9893;BME280;4985;49.092;8.542;2023-07-13T03:29:31;99341.84;;;23.85;43.81
9893;BME280;4985;49.092;8.542;2023-07-13T03:31:58;99345.09;;;23.87;43.67
9893;BME280;4985;49.092;8.542;2023-07-13T03:34:24;99351.03;;;23.89;43.58
9893;BME280;4985;49.092;8.542;2023-07-13T03:36:54;99346.72;;;23.88;43.61
9893;BME280;4985;49.092;8.542;2023-07-13T03:39:22;99348.03;;;23.86;43.53
9893;BME280;4985;49.092;8.542;2023-07-13T03:41:49;99353.09;;;23.82;43.50
9893;BME280;4985;49.092;8.542;2023-07-13T03:44:16;99356.84;;;23.81;43.34
9893;BME280;4985;49.092;8.542;2023-07-13T03:46:43;99362.22;;;23.81;43.38
9893;BME280;4985;49.092;8.542;2023-07-13T03:49:10;99360.59;;;23.80;43.40
9893;BME280;4985;49.092;8.542;2023-07-13T03:51:36;99359.78;;;23.79;43.31
9893;BME280;4985;49.092;8.542;2023-07-13T03:54:03;99365.62;;;23.76;43.28
9893;BME280;4985;49.092;8.542;2023-07-13T03:56:31;99361.56;;;23.74;43.33
9893;BME280;4985;49.092;8.542;2023-07-13T03:58:58;99370.84;;;23.66;43.63
9893;BME280;4985;49.092;8.542;2023-07-13T04:01:25;99374.28;;;23.62;43.76
9893;BME280;4985;49.092;8.542;2023-07-13T04:03:52;99374.22;;;23.57;43.89
9893;BME280;4985;49.092;8.542;2023-07-13T04:06:20;99367.44;;;23.54;43.86
9893;BME280;4985;49.092;8.542;2023-07-13T04:08:50;99377.34;;;23.53;43.79
9893;BME280;4985;49.092;8.542;2023-07-13T04:11:17;99377.03;;;23.50;43.87
9893;BME280;4985;49.092;8.542;2023-07-13T04:13:45;99369.13;;;23.43;44.00
9893;BME280;4985;49.092;8.542;2023-07-13T04:16:12;99378.25;;;23.42;44.13
9893;BME280;4985;49.092;8.542;2023-07-13T04:18:39;99385.19;;;23.38;44.19
9893;BME280;4985;49.092;8.542;2023-07-13T04:21:06;99376.22;;;23.33;44.47
9893;BME280;4985;49.092;8.542;2023-07-13T04:23:33;99370.22;;;23.26;44.49
9893;BME280;4985;49.092;8.542;2023-07-13T04:26:00;99382.09;;;23.30;44.46
9893;BME280;4985;49.092;8.542;2023-07-13T04:28:27;99381.28;;;23.29;44.56
9893;BME280;4985;49.092;8.542;2023-07-13T04:30:55;99384.22;;;23.28;44.54
9893;BME280;4985;49.092;8.542;2023-07-13T04:33:22;99380.94;;;23.26;44.59
9893;BME280;4985;49.092;8.542;2023-07-13T04:35:49;99380.94;;;23.26;44.70
9893;BME280;4985;49.092;8.542;2023-07-13T04:38:22;99385.66;;;23.18;44.84
9893;BME280;4985;49.092;8.542;2023-07-13T04:40:50;99387.22;;;23.14;44.99
9893;BME280;4985;49.092;8.542;2023-07-13T04:43:17;99392.81;;;23.13;45.03
9893;BME280;4985;49.092;8.542;2023-07-13T04:45:43;99387.91;;;23.10;45.03
9893;BME280;4985;49.092;8.542;2023-07-13T04:48:11;99392.97;;;23.06;45.18
9893;BME280;4985;49.092;8.542;2023-07-13T04:50:38;99394.03;;;23.05;45.26
9893;BME280;4985;49.092;8.542;2023-07-13T04:53:05;99405.81;;;23.04;45.31
9893;BME280;4985;49.092;8.542;2023-07-13T04:55:31;99403.06;;;22.99;45.28
9893;BME280;4985;49.092;8.542;2023-07-13T04:57:58;99406.78;;;22.98;45.39
9893;BME280;4985;49.092;8.542;2023-07-13T05:00:25;99404.34;;;22.97;45.44
9893;BME280;4985;49.092;8.542;2023-07-13T05:02:53;99402.72;;;22.95;45.47
9893;BME280;4985;49.092;8.542;2023-07-13T05:05:21;99400.28;;;22.94;45.82
9893;BME280;4985;49.092;8.542;2023-07-13T05:07:48;99402.38;;;22.92;45.93
9893;BME280;4985;49.092;8.542;2023-07-13T05:10:14;99405.44;;;22.84;46.00
9893;BME280;4985;49.092;8.542;2023-07-13T05:12:41;99405.44;;;22.84;46.06
9893;BME280;4985;49.092;8.542;2023-07-13T05:15:08;99408.03;;;22.79;46.32
9893;BME280;4985;49.092;8.542;2023-07-13T05:17:35;99405.56;;;22.77;46.39
9893;BME280;4985;49.092;8.542;2023-07-13T05:20:04;99395.66;;;22.78;46.56
9893;BME280;4985;49.092;8.542;2023-07-13T05:22:32;99413.50;;;22.72;46.65
9893;BME280;4985;49.092;8.542;2023-07-13T05:25:00;99413.28;;;22.74;46.65
9893;BME280;4985;49.092;8.542;2023-07-13T05:27:27;99418.62;;;22.74;46.69
9893;BME280;4985;49.092;8.542;2023-07-13T05:29:53;99422.63;;;22.71;46.59
9893;BME280;4985;49.092;8.542;2023-07-13T05:32:20;99413.50;;;22.72;46.53
9893;BME280;4985;49.092;8.542;2023-07-13T05:34:46;99419.13;;;22.71;46.17
9893;BME280;4985;49.092;8.542;2023-07-13T05:37:13;99418.06;;;22.72;46.14
9893;BME280;4985;49.092;8.542;2023-07-13T05:39:41;99418.41;;;22.75;46.07
9893;BME280;4985;49.092;8.542;2023-07-13T05:42:07;99421.19;;;22.80;45.96
9893;BME280;4985;49.092;8.542;2023-07-13T05:44:34;99421.31;;;22.85;45.93
9893;BME280;4985;49.092;8.542;2023-07-13T05:47:00;99422.72;;;22.88;45.88
9893;BME280;4985;49.092;8.542;2023-07-13T05:49:27;99418.25;;;22.93;45.83
9893;BME280;4985;49.092;8.542;2023-07-13T05:51:55;99425.00;;;22.96;45.76
9893;BME280;4985;49.092;8.542;2023-07-13T05:54:22;99429.91;;;22.99;45.70
9893;BME280;4985;49.092;8.542;2023-07-13T05:56:50;99433.16;;;23.01;45.63
9893;BME280;4985;49.092;8.542;2023-07-13T05:59:17;99431.03;;;23.03;45.58
9893;BME280;4985;49.092;8.542;2023-07-13T06:01:44;99435.94;;;23.06;45.58
9893;BME280;4985;49.092;8.542;2023-07-13T06:04:10;99442.91;;;23.07;45.53
9893;BME280;4985;49.092;8.542;2023-07-13T06:06:37;99440.00;;;23.09;45.50
9893;BME280;4985;49.092;8.542;2023-07-13T06:09:03;99447.81;;;23.10;45.48
9893;BME280;4985;49.092;8.542;2023-07-13T06:11:30;99444.09;;;23.11;45.48
9893;BME280;4985;49.092;8.542;2023-07-13T06:13:58;99445.72;;;23.12;45.48
9893;BME280;4985;49.092;8.542;2023-07-13T06:16:25;99448.16;;;23.14;45.48
9893;BME280;4985;49.092;8.542;2023-07-13T06:18:51;99459.72;;;23.14;45.49
9893;BME280;4985;49.092;8.542;2023-07-13T06:21:20;99453.03;;;23.17;45.47
9893;BME280;4985;49.092;8.542;2023-07-13T06:23:49;99453.84;;;23.17;45.46
9893;BME280;4985;49.092;8.542;2023-07-13T06:26:16;99458.16;;;23.18;45.46
9893;BME280;4985;49.092;8.542;2023-07-13T06:28:43;99450.91;;;23.19;45.44
9893;BME280;4985;49.092;8.542;2023-07-13T06:31:13;99463.03;;;23.21;45.43
9893;BME280;4985;49.092;8.542;2023-07-13T06:33:40;99473.78;;;23.21;45.43
9893;BME280;4985;49.092;8.542;2023-07-13T06:36:08;99464.91;;;23.21;45.43
9893;BME280;4985;49.092;8.542;2023-07-13T06:38:35;99476.00;;;23.24;45.43
9893;BME280;4985;49.092;8.542;2023-07-13T06:41:02;99469.84;;;23.24;45.42
9893;BME280;4985;49.092;8.542;2023-07-13T06:43:28;99467.72;;;23.26;45.43
9893;BME280;4985;49.092;8.542;2023-07-13T06:45:57;99476.34;;;23.28;45.43
9893;BME280;4985;49.092;8.542;2023-07-13T06:48:25;99477.97;;;23.29;45.42
9893;BME280;4985;49.092;8.542;2023-07-13T06:50:51;99486.84;;;23.30;45.41
9893;BME280;4985;49.092;8.542;2023-07-13T06:53:19;99477.72;;;23.31;45.41
9893;BME280;4985;49.092;8.542;2023-07-13T06:55:46;99492.56;;;23.33;45.39
9893;BME280;4985;49.092;8.542;2023-07-13T06:58:14;99481.81;;;23.33;45.38
9893;BME280;4985;49.092;8.542;2023-07-13T07:00:41;99474.56;;;23.34;45.39
9893;BME280;4985;49.092;8.542;2023-07-13T07:03:07;99481.56;;;23.35;45.39
9893;BME280;4985;49.092;8.542;2023-07-13T07:05:35;99486.69;;;23.36;45.39
9893;BME280;4985;49.092;8.542;2023-07-13T07:08:02;99492.06;;;23.36;45.39
9893;BME280;4985;49.092;8.542;2023-07-13T07:10:30;99497.19;;;23.38;45.39
9893;BME280;4985;49.092;8.542;2023-07-13T07:12:57;99501.50;;;23.39;45.39
9893;BME280;4985;49.092;8.542;2023-07-13T07:15:23;99500.47;;;23.40;45.39
9893;BME280;4985;49.092;8.542;2023-07-13T07:17:50;99494.03;;;23.41;45.38
9893;BME280;4985;49.092;8.542;2023-07-13T07:20:16;99497.53;;;23.41;45.38
9893;BME280;4985;49.092;8.542;2023-07-13T07:22:44;99503.72;;;23.42;45.39
9893;BME280;4985;49.092;8.542;2023-07-13T07:25:11;99494.59;;;23.43;45.38
9893;BME280;4985;49.092;8.542;2023-07-13T07:27:38;99497.06;;;23.44;45.38
9893;BME280;4985;49.092;8.542;2023-07-13T07:30:06;99503.25;;;23.45;45.39
9893;BME280;4985;49.092;8.542;2023-07-13T07:32:33;99507.81;;;23.44;45.39
9893;BME280;4985;49.092;8.542;2023-07-13T07:34:59;99505.69;;;23.46;45.40
9893;BME280;4985;49.092;8.542;2023-07-13T07:37:26;99507.31;;;23.47;45.40
9893;BME280;4985;49.092;8.542;2023-07-13T07:39:54;99502.75;;;23.48;45.39
9893;BME280;4985;49.092;8.542;2023-07-13T07:42:20;99506.00;;;23.50;45.37
9893;BME280;4985;49.092;8.542;2023-07-13T07:44:47;99504.94;;;23.51;45.36
9893;BME280;4985;49.092;8.542;2023-07-13T07:47:14;99511.94;;;23.52;45.33
9893;BME280;4985;49.092;8.542;2023-07-13T07:49:40;99509.25;;;23.52;45.36
9893;BME280;4985;49.092;8.542;2023-07-13T07:52:07;99507.41;;;23.52;45.38
9893;BME280;4985;49.092;8.542;2023-07-13T07:54:34;99505.53;;;23.53;45.38
9893;BME280;4985;49.092;8.542;2023-07-13T07:57:02;99522.44;;;23.53;45.39
9893;BME280;4985;49.092;8.542;2023-07-13T07:59:29;99507.16;;;23.54;45.38
9893;BME280;4985;49.092;8.542;2023-07-13T08:01:55;99508.78;;;23.55;45.38
9893;BME280;4985;49.092;8.542;2023-07-13T08:04:22;99506.09;;;23.55;45.38
9893;BME280;4985;49.092;8.542;2023-07-13T08:06:48;99511.25;;;23.57;45.39
9893;BME280;4985;49.092;8.542;2023-07-13T08:09:15;99510.19;;;23.58;45.37
9893;BME280;4985;49.092;8.542;2023-07-13T08:11:42;99508.34;;;23.58;45.37
9893;BME280;4985;49.092;8.542;2023-07-13T08:14:09;99517.78;;;23.61;45.35
9893;BME280;4985;49.092;8.542;2023-07-13T08:16:36;99520.22;;;23.62;45.34
9893;BME280;4985;49.092;8.542;2023-07-13T08:19:03;99520.22;;;23.62;45.34
9893;BME280;4985;49.092;8.542;2023-07-13T08:21:31;99523.72;;;23.63;45.36
9893;BME280;4985;49.092;8.542;2023-07-13T08:23:57;99523.47;;;23.64;45.34
9893;BME280;4985;49.092;8.542;2023-07-13T08:26:24;99523.22;;;23.66;45.32
9893;BME280;4985;49.092;8.542;2023-07-13T08:28:51;99518.66;;;23.66;45.31
9893;BME280;4985;49.092;8.542;2023-07-13T08:31:19;99510.03;;;23.64;45.31
9893;BME280;4985;49.092;8.542;2023-07-13T08:33:45;99514.34;;;23.65;45.31
9893;BME280;4985;49.092;8.542;2023-07-13T08:36:12;99520.53;;;23.66;45.32
9893;BME280;4985;49.092;8.542;2023-07-13T08:38:39;99512.47;;;23.66;45.34
9893;BME280;4985;49.092;8.542;2023-07-13T08:41:12;99520.53;;;23.66;45.35
9893;BME280;4985;49.092;8.542;2023-07-13T08:43:39;99517.62;;;23.67;45.33
9893;BME280;4985;49.092;8.542;2023-07-13T08:46:11;99513.09;;;23.68;45.31
9893;BME280;4985;49.092;8.542;2023-07-13T08:48:44;99503.97;;;23.69;45.29
9893;BME280;4985;49.092;8.542;2023-07-13T08:51:22;99512.84;;;23.69;45.27
9893;BME280;4985;49.092;8.542;2023-07-13T08:53:54;99505.59;;;23.70;45.27
9893;BME280;4985;49.092;8.542;2023-07-13T08:56:27;99511.78;;;23.70;45.29
9893;BME280;4985;49.092;8.542;2023-07-13T08:58:57;99511.78;;;23.70;45.27
9893;BME280;4985;49.092;8.542;2023-07-13T09:01:30;99502.66;;;23.71;45.25
9893;BME280;4985;49.092;8.542;2023-07-13T09:04:05;99516.09;;;23.71;45.20
9893;BME280;4985;49.092;8.542;2023-07-13T09:06:42;99515.84;;;23.73;45.17
9893;BME280;4985;49.092;8.542;2023-07-13T09:09:19;99513.16;;;23.73;45.13
9893;BME280;4985;49.092;8.542;2023-07-13T09:11:57;99507.78;;;23.73;45.15
9893;BME280;4985;49.092;8.542;2023-07-13T09:14:41;99511.53;;;23.72;45.11
9893;BME280;4985;49.092;8.542;2023-07-13T09:17:14;99514.53;;;23.75;45.09
9893;BME280;4985;49.092;8.542;2023-07-13T09:19:46;99509.66;;;23.72;45.09
9893;BME280;4985;49.092;8.542;2023-07-13T09:22:18;99518.03;;;23.76;45.06
9893;BME280;4985;49.092;8.542;2023-07-13T09:24:52;99512.41;;;23.77;45.02
9893;BME280;4985;49.092;8.542;2023-07-13T09:27:23;99517.78;;;23.77;45.02
9893;BME280;4985;49.092;8.542;2023-07-13T09:29:58;99519.44;;;23.78;45.03
9893;BME280;4985;49.092;8.542;2023-07-13T09:32:28;99516.75;;;23.78;45.01
9893;BME280;4985;49.092;8.542;2023-07-13T09:34:57;99515.69;;;23.79;45.03
9893;BME280;4985;49.092;8.542;2023-07-13T09:37:29;99510.31;;;23.79;45.03
9893;BME280;4985;49.092;8.542;2023-07-13T09:39:58;99511.13;;;23.80;45.02
9893;BME280;4985;49.092;8.542;2023-07-13T09:42:25;99511.13;;;23.80;45.03
9893;BME280;4985;49.092;8.542;2023-07-13T09:44:55;99504.13;;;23.79;45.02
9893;BME280;4985;49.092;8.542;2023-07-13T09:47:23;99511.94;;;23.80;45.02
9893;BME280;4985;49.092;8.542;2023-07-13T09:49:57;99499.56;;;23.79;45.00
9893;BME280;4985;49.092;8.542;2023-07-13T09:52:25;99510.88;;;23.81;45.02
9893;BME280;4985;49.092;8.542;2023-07-13T09:54:53;99509.81;;;23.83;44.99
9893;BME280;4985;49.092;8.542;2023-07-13T09:57:25;99509.81;;;23.83;44.98
9893;BME280;4985;49.092;8.542;2023-07-13T09:59:54;99509.81;;;23.83;44.97
9893;BME280;4985;49.092;8.542;2023-07-13T10:02:27;99512.50;;;23.83;44.98
9893;BME280;4985;49.092;8.542;2023-07-13T10:05:00;99511.44;;;23.84;44.96
9893;BME280;4985;49.092;8.542;2023-07-13T10:07:29;99507.69;;;23.85;44.97
9893;BME280;4985;49.092;8.542;2023-07-13T10:09:57;99508.50;;;23.85;44.95
9893;BME280;4985;49.092;8.542;2023-07-13T10:12:26;99501.25;;;23.86;44.94
9893;BME280;4985;49.092;8.542;2023-07-13T10:14:55;99504.44;;;23.83;44.92
9893;BME280;4985;49.092;8.542;2023-07-13T10:17:29;99507.44;;;23.86;44.91
9893;BME280;4985;49.092;8.542;2023-07-13T10:20:01;99503.38;;;23.84;44.85
9893;BME280;4985;49.092;8.542;2023-07-13T10:22:36;99509.88;;;23.88;44.88
9893;BME280;4985;49.092;8.542;2023-07-13T10:25:14;99500.75;;;23.89;44.89
9893;BME280;4985;49.092;8.542;2023-07-13T10:27:41;99498.06;;;23.89;44.89
9893;BME280;4985;49.092;8.542;2023-07-13T10:30:13;99502.38;;;23.90;44.87
9893;BME280;4985;49.092;8.542;2023-07-13T10:32:42;99500.53;;;23.90;44.88
9893;BME280;4985;49.092;8.542;2023-07-13T10:35:12;99498.66;;;23.91;44.84
9893;BME280;4985;49.092;8.542;2023-07-13T10:37:44;99509.19;;;23.92;44.84
9893;BME280;4985;49.092;8.542;2023-07-13T10:40:13;99501.34;;;23.91;44.82
9893;BME280;4985;49.092;8.542;2023-07-13T10:42:44;99504.87;;;23.91;44.82
9893;BME280;4985;49.092;8.542;2023-07-13T10:45:14;99495.97;;;23.91;44.80
9893;BME280;4985;49.092;8.542;2023-07-13T10:47:42;99509.19;;;23.92;44.82
9893;BME280;4985;49.092;8.542;2023-07-13T10:50:16;99504.03;;;23.91;44.84
9893;BME280;4985;49.092;8.542;2023-07-13T10:52:46;99498.66;;;23.91;44.81
9893;BME280;4985;49.092;8.542;2023-07-13T10:55:36;99501.66;;;23.94;44.79
9893;BME280;4985;49.092;8.542;2023-07-13T10:58:12;99497.59;;;23.92;44.80
9893;BME280;4985;49.092;8.542;2023-07-13T11:00:44;99507.63;;;23.96;44.80
9893;BME280;4985;49.092;8.542;2023-07-13T11:03:15;99511.13;;;23.97;44.80
9893;BME280;4985;49.092;8.542;2023-07-13T11:05:48;99509.25;;;23.97;44.80
9893;BME280;4985;49.092;8.542;2023-07-13T11:08:20;99502.00;;;23.98;44.79
9893;BME280;4985;49.092;8.542;2023-07-13T11:10:52;99497.66;;;23.97;44.75
9893;BME280;4985;49.092;8.542;2023-07-13T11:13:55;99485.84;;;23.98;44.76
9893;BME280;4985;49.092;8.542;2023-07-13T11:16:35;99492.84;;;23.99;44.78
9893;BME280;4985;49.092;8.542;2023-07-13T11:19:25;99482.91;;;23.99;44.81
9893;BME280;4985;49.092;8.542;2023-07-13T11:22:11;99476.72;;;23.99;44.79
9893;BME280;4985;49.092;8.542;2023-07-13T11:27:39;99486.19;;;24.01;44.77
9893;BME280;4985;49.092;8.542;2023-07-13T11:30:18;99475.44;;;24.01;44.76
9893;BME280;4985;49.092;8.542;2023-07-13T11:32:50;99480.81;;;24.01;44.76
9893;BME280;4985;49.092;8.542;2023-07-13T11:35:22;99489.69;;;24.02;44.76
9893;BME280;4985;49.092;8.542;2023-07-13T11:37:51;99475.44;;;24.01;44.75
9893;BME280;4985;49.092;8.542;2023-07-13T11:40:27;99476.81;;;24.04;44.75
9893;BME280;4985;49.092;8.542;2023-07-13T11:42:59;99484.88;;;24.04;44.74
9893;BME280;4985;49.092;8.542;2023-07-13T11:45:26;99489.19;;;24.05;44.74
9893;BME280;4985;49.092;8.542;2023-07-13T11:47:53;99481.94;;;24.05;44.68
9893;BME280;4985;49.092;8.542;2023-07-13T11:50:23;99480.88;;;24.06;44.68
9893;BME280;4985;49.092;8.542;2023-07-13T11:52:53;99488.69;;;24.08;44.68
9893;BME280;4985;49.092;8.542;2023-07-13T11:55:22;99470.94;;;24.07;44.66
9893;BME280;4985;49.092;8.542;2023-07-13T11:57:54;99474.19;;;24.09;44.67
9893;BME280;4985;49.092;8.542;2023-07-13T12:00:27;99480.38;;;24.09;44.65
9893;BME280;4985;49.092;8.542;2023-07-13T12:02:56;99485.75;;;24.09;44.66
9893;BME280;4985;49.092;8.542;2023-07-13T12:05:26;99486.31;;;24.11;44.63
9893;BME280;4985;49.092;8.542;2023-07-13T12:07:54;99476.63;;;24.10;44.63
9893;BME280;4985;49.092;8.542;2023-07-13T12:10:23;99477.44;;;24.11;44.63
9893;BME280;4985;49.092;8.542;2023-07-13T12:12:53;99480.94;;;24.11;44.64
9893;BME280;4985;49.092;8.542;2023-07-13T12:15:19;99471.00;;;24.12;44.62
9893;BME280;4985;49.092;8.542;2023-07-13T12:17:47;99467.50;;;24.11;44.60
9893;BME280;4985;49.092;8.542;2023-07-13T12:20:23;99462.94;;;24.12;44.58
9893;BME280;4985;49.092;8.542;2023-07-13T12:22:51;99481.75;;;24.12;44.52
9893;BME280;4985;49.092;8.542;2023-07-13T12:25:20;99469.97;;;24.13;44.50
9893;BME280;4985;49.092;8.542;2023-07-13T12:27:49;99474.28;;;24.14;44.43
9893;BME280;4985;49.092;8.542;2023-07-13T12:30:26;99467.84;;;24.15;44.36
9893;BME280;4985;49.092;8.542;2023-07-13T12:32:56;99470.53;;;24.15;44.35
9893;BME280;4985;49.092;8.542;2023-07-13T12:35:23;99470.53;;;24.15;44.32
9893;BME280;4985;49.092;8.542;2023-07-13T12:37:51;99462.22;;;24.17;44.26
9893;BME280;4985;49.092;8.542;2023-07-13T12:40:20;99456.53;;;24.13;44.23
9893;BME280;4985;49.092;8.542;2023-07-13T12:42:49;99464.66;;;24.18;44.22
9893;BME280;4985;49.092;8.542;2023-07-13T12:45:20;99476.22;;;24.19;44.23
9893;BME280;4985;49.092;8.542;2023-07-13T12:47:48;99480.78;;;24.18;44.21
9893;BME280;4985;49.092;8.542;2023-07-13T12:50:17;99470.84;;;24.19;44.18
9893;BME280;4985;49.092;8.542;2023-07-13T12:52:50;99477.59;;;24.21;44.16
9893;BME280;4985;49.092;8.542;2023-07-13T12:55:20;99470.59;;;24.20;44.15
9893;BME280;4985;49.092;8.542;2023-07-13T12:57:50;99475.47;;;24.23;44.15
9893;BME280;4985;49.092;8.542;2023-07-13T13:00:26;99471.50;;;24.26;44.11
9893;BME280;4985;49.092;8.542;2023-07-13T13:02:55;99474.75;;;24.28;44.09
9893;BME280;4985;49.092;8.542;2023-07-13T13:05:25;99473.94;;;24.27;44.11
9893;BME280;4985;49.092;8.542;2023-07-13T13:07:52;99483.63;;;24.28;44.10
9893;BME280;4985;49.092;8.542;2023-07-13T13:10:20;99476.63;;;24.27;44.11
9893;BME280;4985;49.092;8.542;2023-07-13T13:12:47;99473.94;;;24.27;44.14
9893;BME280;4985;49.092;8.542;2023-07-13T13:15:14;99476.63;;;24.27;44.14
9893;BME280;4985;49.092;8.542;2023-07-13T13:17:41;99475.56;;;24.28;44.12
9893;BME280;4985;49.092;8.542;2023-07-13T13:20:14;99480.13;;;24.28;44.08
9893;BME280;4985;49.092;8.542;2023-07-13T13:22:41;99472.06;;;24.28;44.01
9893;BME280;4985;49.092;8.542;2023-07-13T13:25:10;99470.16;;;24.28;44.00
9893;BME280;4985;49.092;8.542;2023-07-13T13:27:39;99475.56;;;24.28;43.97
9893;BME280;4985;49.092;8.542;2023-07-13T13:30:10;99466.41;;;24.29;43.95
9893;BME280;4985;49.092;8.542;2023-07-13T13:32:38;99479.66;;;24.31;43.95